LLHA/HFA METAR and TAF weather

Enter ICAO airport designator
Station Type Date Time Source
LLHA METAR 2020/09/21 09:50 UTC NOAA

LLHA 210950Z 32010KT 9999 FEW025 30/22 Q1010


Station Type Date Time Source
LLHA Decoded METAR 2020/09/21 09:50 UTC NOAA

Sde-Haifa Haifa, Israel (LLHA) 32-48N 035-02E 8M
Sep 21, 2020 - 05:50 AM EDT / 2020.09.21 0950 UTC
Wind: from the NW (320 degrees) at 12 MPH (10 KT):0
Visibility: greater than 7 mile(s):0
Sky conditions: mostly clear
Temperature: 86 F (30 C)
Heat index: 91.8 F (33.2 C):1
Dew Point: 71 F (22 C)
Relative Humidity: 62%
Pressure (altimeter): 29.83 in. Hg (1010 hPa)
ob: LLHA 210950Z 32010KT 9999 FEW025 30/22 Q1010
cycle: 10

Station Type Date Time Source
LLHA TAF 2020/09/21 06:00 UTC NOAA

TAF LLHA 210506Z 2106/2206 33005KT 9999 SCT025
BECMG 2107/2109 32012KT FEW030
BECMG 2115/2117 35005KT SCT025
TEMPO 2123/2206 VRB03KT TX31/2110Z TN26/2203Z

Example: see airport list